createdAt,value
2019-02-04T05:08:29.672Z,1.49
2019-02-04T05:09:29.662Z,1.56
2019-02-04T05:10:29.652Z,1.55
2019-02-04T05:11:29.641Z,1.52
2019-02-04T05:12:29.628Z,1.46
2019-02-04T05:13:29.618Z,1.48
2019-02-04T05:14:29.610Z,1.41
2019-02-04T05:15:29.595Z,1.42
2019-02-04T05:16:29.582Z,1.44
2019-02-04T05:17:29.576Z,1.36
2019-02-04T05:18:37.744Z,1.42
2019-02-04T05:19:30.572Z,1.41
2019-02-04T05:20:29.538Z,1.44
2019-02-04T05:21:29.528Z,1.38
2019-02-04T05:22:29.522Z,1.41
2019-02-04T05:23:29.507Z,1.31
2019-02-04T05:24:29.494Z,1.44
2019-02-04T05:25:29.485Z,1.34
2019-02-04T05:26:29.471Z,1.41
2019-02-04T05:27:29.462Z,1.42
2019-02-04T05:28:29.456Z,1.27
2019-02-04T05:29:29.440Z,1.23
2019-02-04T05:30:29.428Z,1.26
2019-02-04T05:31:29.419Z,1.26
2019-02-04T05:32:29.411Z,1.26
2019-02-04T05:33:29.395Z,1.30
2019-02-04T05:34:29.383Z,1.22
2019-02-04T05:35:29.377Z,1.22
2019-02-04T05:36:29.365Z,1.23
2019-02-04T05:37:29.351Z,1.27
2019-02-04T05:38:29.339Z,1.28
2019-02-04T05:39:29.328Z,1.22
2019-02-04T05:40:29.318Z,1.26
2019-02-04T05:41:29.305Z,1.22
2019-02-04T05:42:29.296Z,1.22
2019-02-04T05:43:29.282Z,1.26
2019-02-04T05:44:29.275Z,1.23
2019-02-04T05:45:29.261Z,1.23
2019-02-04T05:46:29.248Z,1.26
2019-02-04T05:47:29.241Z,1.22
2019-02-04T05:48:29.226Z,1.23
2019-02-04T05:49:29.221Z,1.27
2019-02-04T05:50:29.207Z,1.26
2019-02-04T05:51:29.194Z,1.22
2019-02-04T05:52:29.183Z,1.38
2019-02-04T05:53:29.178Z,1.26
2019-02-04T05:54:29.165Z,1.26
2019-02-04T05:55:30.632Z,1.28
2019-02-04T05:56:29.138Z,1.35
2019-02-04T05:57:29.132Z,1.22
2019-02-04T05:58:29.118Z,1.31
2019-02-04T05:59:29.103Z,1.31
2019-02-04T06:00:29.094Z,1.28
2019-02-04T06:01:29.081Z,1.26
2019-02-04T06:02:29.071Z,1.22
2019-02-04T06:03:29.059Z,1.31
2019-02-04T06:04:29.053Z,1.39
2019-02-04T06:05:29.038Z,1.45
2019-02-04T06:06:29.028Z,1.42
2019-02-04T06:07:29.019Z,1.28
2019-02-04T06:08:29.003Z,1.27
2019-02-04T06:10:28.982Z,1.26
2019-02-04T06:11:28.974Z,1.12
2019-02-04T06:12:28.962Z,1.20
2019-02-04T06:13:28.957Z,1.17
2019-02-04T06:14:28.936Z,1.22
2019-02-04T06:15:28.926Z,1.26
2019-02-04T06:16:28.928Z,1.11
2019-02-04T06:17:28.902Z,1.17
2019-02-04T06:18:28.898Z,1.16
2019-02-04T06:19:28.884Z,1.22
2019-02-04T06:20:28.878Z,1.19
2019-02-04T06:21:28.871Z,1.23
2019-02-04T06:22:28.848Z,1.09
2019-02-04T06:23:28.836Z,1.23
2019-02-04T06:24:28.825Z,1.22
2019-02-04T06:25:28.816Z,1.08
2019-02-04T06:26:28.812Z,1.09
2019-02-04T06:27:28.794Z,1.16
2019-02-04T06:28:28.788Z,1.12
2019-02-04T06:29:28.884Z,1.16
2019-02-04T06:30:28.762Z,1.12
2019-02-04T06:31:28.746Z,1.07
2019-02-04T06:32:28.736Z,1.09
2019-02-04T06:33:28.727Z,1.08
2019-02-04T06:34:28.712Z,1.01
2019-02-04T06:36:28.699Z,1.07
2019-02-04T06:37:28.690Z,1.04
2019-02-04T06:38:28.669Z,0.99
2019-02-04T06:39:28.667Z,1.04
2019-02-04T06:40:28.678Z,0.93
2019-02-04T06:41:28.682Z,1.01
2019-02-04T06:42:28.683Z,1.01
2019-02-04T06:43:28.618Z,1.01
2019-02-04T06:44:28.621Z,0.98
2019-02-04T06:45:28.640Z,0.95
2019-02-04T06:46:28.634Z,0.95
2019-02-04T06:47:28.569Z,0.91
2019-02-04T06:48:28.556Z,0.97
2019-02-04T06:49:28.554Z,1.01
2019-02-04T06:50:28.535Z,1.07
2019-02-04T06:51:28.523Z,1.02
2019-02-04T06:52:28.513Z,1.07
2019-02-04T06:53:28.502Z,1.05
2019-02-04T06:54:28.496Z,1.09
2019-02-04T06:55:28.481Z,1.02
2019-02-04T06:56:28.470Z,1.08
2019-02-04T06:57:28.457Z,1.20
2019-02-04T06:58:28.445Z,1.22
2019-02-04T06:59:28.443Z,1.28
2019-02-04T07:00:28.424Z,1.27
2019-02-04T07:01:28.413Z,1.27
2019-02-04T07:02:28.402Z,1.36
2019-02-04T07:03:28.391Z,1.41
2019-02-04T07:04:28.382Z,1.31
2019-02-04T07:05:28.369Z,1.38
2019-02-04T07:06:28.357Z,1.42
2019-02-04T07:07:28.351Z,1.48
2019-02-04T07:08:28.341Z,1.42
2019-02-04T07:09:28.328Z,1.45
2019-02-04T07:10:28.322Z,1.49
2019-02-04T07:11:28.301Z,1.52
2019-02-04T07:12:28.294Z,1.63
2019-02-04T07:13:28.280Z,1.63
2019-02-04T07:14:28.272Z,1.64
2019-02-04T07:15:28.257Z,1.63
2019-02-04T07:16:28.245Z,1.69
2019-02-04T07:17:28.234Z,1.73
2019-02-04T07:18:28.223Z,1.84
2019-02-04T07:19:28.214Z,1.77
2019-02-04T07:20:28.200Z,1.84
2019-02-04T07:21:28.195Z,1.93
2019-02-04T07:22:28.188Z,1.95
2019-02-04T07:23:28.167Z,1.96
2019-02-04T07:24:28.158Z,2.00
2019-02-04T07:25:28.146Z,2.10
2019-02-04T07:26:28.136Z,2.02
2019-02-04T07:27:28.125Z,2.11
2019-02-04T07:28:28.110Z,2.10
2019-02-04T07:29:28.103Z,2.16
2019-02-04T07:30:28.092Z,2.09
2019-02-04T07:31:28.083Z,2.14
2019-02-04T07:32:28.067Z,2.20
2019-02-04T07:33:28.062Z,2.18
2019-02-04T07:34:28.049Z,2.21
2019-02-04T07:35:28.033Z,2.10
2019-02-04T07:36:28.022Z,2.28
2019-02-04T07:37:28.011Z,2.21
2019-02-04T07:38:28.000Z,2.23
2019-02-04T07:39:27.988Z,2.34
2019-02-04T07:40:27.989Z,2.38
2019-02-04T07:41:27.967Z,2.42
2019-02-04T07:42:27.954Z,2.54
2019-02-04T07:43:27.948Z,2.91
2019-02-04T07:44:27.934Z,3.15
2019-02-04T07:45:27.922Z,3.33
2019-02-04T07:46:27.911Z,3.48
2019-02-04T07:47:27.899Z,3.55
2019-02-04T07:48:27.887Z,3.62
2019-02-04T07:49:35.014Z,3.59
2019-02-04T07:50:52.345Z,3.68
2019-02-04T07:51:52.339Z,3.77
2019-02-04T07:52:52.323Z,3.81
2019-02-04T07:53:52.313Z,3.95
2019-02-04T07:54:52.305Z,3.91
2019-02-04T07:55:52.292Z,4.04
2019-02-04T07:56:52.281Z,4.12
2019-02-04T07:57:52.268Z,4.13
2019-02-04T07:58:52.256Z,4.30
2019-02-04T07:59:52.250Z,4.41
2019-02-04T08:00:52.246Z,4.57
2019-02-04T08:01:52.224Z,4.79
2019-02-04T08:02:52.215Z,4.99
2019-02-04T08:03:52.202Z,5.17
2019-02-04T08:04:52.192Z,5.36
2019-02-04T08:05:52.181Z,5.59
2019-02-04T08:06:52.169Z,5.77
2019-02-04T08:07:52.161Z,5.88
2019-02-04T08:08:52.274Z,6.06
2019-02-04T08:09:52.140Z,6.30
2019-02-04T08:10:52.123Z,6.59
2019-02-04T08:11:52.111Z,6.72
2019-02-04T08:13:00.973Z,7.08
2019-02-04T08:13:53.110Z,7.49
2019-02-04T08:14:52.080Z,7.62
2019-02-04T08:15:52.067Z,7.73
2019-02-04T08:16:52.061Z,8.09
2019-02-04T08:17:52.051Z,8.25
2019-02-04T08:18:52.034Z,8.52
2019-02-04T08:19:52.024Z,8.52
2019-02-04T08:20:52.015Z,8.67
2019-02-04T08:21:51.999Z,8.81
2019-02-04T08:22:51.988Z,8.80
2019-02-04T08:23:51.976Z,8.83
2019-02-04T08:24:51.968Z,8.85
2019-02-04T08:25:51.956Z,9.08
2019-02-04T08:26:51.943Z,9.25
2019-02-04T08:27:51.935Z,9.36
2019-02-04T08:28:51.920Z,9.58
2019-02-04T08:29:51.916Z,9.85
2019-02-04T08:30:51.898Z,10.06
2019-02-04T08:31:51.886Z,9.98
2019-02-04T08:32:51.876Z,10.20
2019-02-04T08:33:51.864Z,10.35
2019-02-04T08:34:51.852Z,10.61
2019-02-04T08:35:51.845Z,10.79
2019-02-04T08:36:51.831Z,11.07
2019-02-04T08:37:51.822Z,11.00
2019-02-04T08:38:51.811Z,11.02
2019-02-04T08:39:51.794Z,11.23
2019-02-04T08:40:51.787Z,11.40
2019-02-04T08:41:51.772Z,11.67
2019-02-04T08:42:51.770Z,11.69
2019-02-04T08:43:51.762Z,11.76
2019-02-04T08:44:51.737Z,11.87
2019-02-04T08:45:51.726Z,11.85
2019-02-04T08:46:51.716Z,11.89
2019-02-04T08:47:51.706Z,12.14
2019-02-04T08:48:51.695Z,12.43
2019-02-04T08:49:58.423Z,12.65
2019-02-04T08:51:16.151Z,12.88
2019-02-04T08:52:16.143Z,12.91
2019-02-04T08:53:16.129Z,13.14
2019-02-04T08:54:16.116Z,13.24
2019-02-04T08:55:16.107Z,13.19
2019-02-04T08:56:16.093Z,12.83
2019-02-04T08:57:16.083Z,12.69
2019-02-04T08:58:16.073Z,12.95
2019-02-04T08:59:16.066Z,13.41
2019-02-04T09:00:16.052Z,13.62
2019-02-04T09:01:16.042Z,13.85
2019-02-04T09:02:16.030Z,14.02
2019-02-04T09:03:16.021Z,14.28
2019-02-04T09:04:16.006Z,14.45
2019-02-04T09:05:15.995Z,14.51
2019-02-04T09:06:15.983Z,14.49
2019-02-04T09:07:15.971Z,14.69
2019-02-04T09:08:15.960Z,15.06
2019-02-04T09:09:15.951Z,15.19
2019-02-04T09:10:15.937Z,14.91
2019-02-04T09:11:15.923Z,14.58
2019-02-04T09:12:15.913Z,14.52
2019-02-04T09:13:15.900Z,14.73
2019-02-04T09:14:15.965Z,14.91
2019-02-04T09:15:16.429Z,14.94
2019-02-04T09:16:15.868Z,15.04
2019-02-04T09:17:15.857Z,15.22
2019-02-04T09:18:15.853Z,15.10
2019-02-04T09:19:15.832Z,15.19
2019-02-04T09:20:15.821Z,15.51
2019-02-04T09:21:15.817Z,15.84
2019-02-04T09:22:15.802Z,16.23
2019-02-04T09:23:15.788Z,16.54
2019-02-04T09:24:15.786Z,16.81
2019-02-04T09:25:15.773Z,17.20
2019-02-04T09:26:15.758Z,17.54
2019-02-04T09:27:15.751Z,17.80
2019-02-04T09:28:15.738Z,18.01
2019-02-04T09:29:15.721Z,18.10
2019-02-04T09:30:15.711Z,18.17
2019-02-04T09:31:15.699Z,18.02
2019-02-04T09:32:15.687Z,17.82
2019-02-04T09:33:15.675Z,17.78
2019-02-04T09:34:15.665Z,17.96
2019-02-04T09:35:15.658Z,18.17
2019-02-04T09:36:15.644Z,18.14
2019-02-04T09:37:15.634Z,18.01
2019-02-04T09:38:15.619Z,17.96
2019-02-04T09:39:15.608Z,18.08
2019-02-04T09:40:15.595Z,18.42
2019-02-04T09:41:15.585Z,18.48
2019-02-04T09:42:15.573Z,18.54
2019-02-04T09:43:15.562Z,18.58
2019-02-04T09:44:15.559Z,18.74
2019-02-04T09:45:15.538Z,18.76
2019-02-04T09:46:15.528Z,19.06
2019-02-04T09:47:15.520Z,19.11
2019-02-04T09:48:15.505Z,19.15
2019-02-04T09:49:15.493Z,19.31
2019-02-04T09:50:21.788Z,19.38
2019-02-04T09:51:39.964Z,19.31
2019-02-04T09:52:39.943Z,19.51
2019-02-04T09:53:39.932Z,19.66
2019-02-04T09:54:39.922Z,19.89
2019-02-04T09:55:39.915Z,20.04
2019-02-04T09:56:39.899Z,20.26
2019-02-04T09:57:39.889Z,20.45
2019-02-04T09:58:39.879Z,20.41
2019-02-04T09:59:39.866Z,20.33
2019-02-04T10:00:39.863Z,20.18
2019-02-04T10:01:39.845Z,19.14
2019-02-04T10:02:39.836Z,17.74
2019-02-04T10:03:39.822Z,16.97
2019-02-04T10:04:39.817Z,16.64
2019-02-04T10:05:39.830Z,17.25
2019-02-04T10:06:39.791Z,17.75
2019-02-04T10:07:39.788Z,17.39
2019-02-04T10:08:39.768Z,17.71
2019-02-04T10:09:39.759Z,18.30
2019-02-04T10:10:39.745Z,18.81
2019-02-04T10:11:39.742Z,19.19
2019-02-04T10:12:39.730Z,19.23
2019-02-04T10:13:39.714Z,18.98
2019-02-04T10:14:39.726Z,19.03
2019-02-04T10:15:39.695Z,19.46
2019-02-04T10:16:39.683Z,19.90
2019-02-04T10:17:39.669Z,20.15
2019-02-04T10:18:39.656Z,19.49
2019-02-04T10:19:39.683Z,19.06
2019-02-04T10:20:39.636Z,19.01
2019-02-04T10:21:39.627Z,19.34
2019-02-04T10:22:39.632Z,19.63
2019-02-04T10:23:39.639Z,18.82
2019-02-04T10:24:39.721Z,18.66
2019-02-04T10:25:39.578Z,18.33
2019-02-04T10:26:39.617Z,18.61
2019-02-04T10:27:39.553Z,18.26
2019-02-04T10:28:39.541Z,18.70
2019-02-04T10:29:39.531Z,19.18
2019-02-04T10:30:39.575Z,18.78
2019-02-04T10:31:39.509Z,19.00
2019-02-04T10:32:39.496Z,18.04
2019-02-04T10:33:39.485Z,17.02
2019-02-04T10:34:39.479Z,15.98
2019-02-04T10:35:39.469Z,16.28
2019-02-04T10:36:39.476Z,16.76
2019-02-04T10:37:39.478Z,16.60
2019-02-04T10:38:39.472Z,15.91
2019-02-04T10:39:39.507Z,14.52
2019-02-04T10:40:39.419Z,14.49
2019-02-04T10:41:39.413Z,15.39
2019-02-04T10:42:39.440Z,16.38
2019-02-04T10:43:39.459Z,16.90
2019-02-04T10:44:39.386Z,17.62
2019-02-04T10:45:39.357Z,18.49
2019-02-04T10:46:39.363Z,19.16
2019-02-04T10:47:39.358Z,19.53
2019-02-04T10:48:39.342Z,20.11
2019-02-04T10:49:39.312Z,19.40
2019-02-04T10:50:46.384Z,17.95
2019-02-04T10:52:03.788Z,16.60
2019-02-04T10:53:03.759Z,15.77
2019-02-04T10:54:03.746Z,15.62
2019-02-04T10:55:03.735Z,15.31
2019-02-04T10:56:03.742Z,14.49
2019-02-04T10:57:03.722Z,14.46
2019-02-04T10:58:03.697Z,14.74
2019-02-04T10:59:03.686Z,15.06
2019-02-04T11:00:03.686Z,15.83
2019-02-04T11:01:03.667Z,16.41
2019-02-04T11:02:03.694Z,15.69
2019-02-04T11:03:03.655Z,15.19
2019-02-04T11:04:03.629Z,15.35
2019-02-04T11:05:03.638Z,15.88
2019-02-04T11:06:03.620Z,16.54
2019-02-04T11:07:03.622Z,16.53
2019-02-04T11:08:03.651Z,16.78
2019-02-04T11:09:03.594Z,17.38
2019-02-04T11:10:03.618Z,17.98
2019-02-04T11:11:03.552Z,17.46
2019-02-04T11:12:03.546Z,16.54
2019-02-04T11:13:03.533Z,15.32
2019-02-04T11:14:03.519Z,14.41
2019-02-04T11:15:03.701Z,14.21
2019-02-04T11:16:03.511Z,14.88
2019-02-04T11:17:03.505Z,15.66
2019-02-04T11:18:03.494Z,16.64
2019-02-04T11:19:03.480Z,17.47
2019-02-04T11:20:03.450Z,18.25
2019-02-04T11:21:03.478Z,19.18
2019-02-04T11:22:03.437Z,18.52
2019-02-04T11:23:03.417Z,17.45
2019-02-04T11:24:03.412Z,17.16
2019-02-04T11:25:03.449Z,15.98
2019-02-04T11:26:03.387Z,15.91
2019-02-04T11:27:03.414Z,15.73
2019-02-04T11:28:03.393Z,16.28
2019-02-04T11:29:03.395Z,15.65
2019-02-04T11:30:03.388Z,15.28
2019-02-04T11:31:03.355Z,15.43
2019-02-04T11:32:03.321Z,15.48
2019-02-04T11:33:03.306Z,15.62
2019-02-04T11:34:03.317Z,15.59
2019-02-04T11:35:03.330Z,15.54
2019-02-04T11:36:03.285Z,15.80
2019-02-04T11:37:03.307Z,15.98
2019-02-04T11:38:03.297Z,16.24
2019-02-04T11:39:03.251Z,15.91
2019-02-04T11:40:03.243Z,16.16
2019-02-04T11:41:03.250Z,16.13
2019-02-04T11:42:03.265Z,16.25
2019-02-04T11:43:03.191Z,16.31
2019-02-04T11:44:03.204Z,16.43
2019-02-04T11:45:03.226Z,15.51
2019-02-04T11:46:03.183Z,15.50
2019-02-04T11:47:03.166Z,16.03
2019-02-04T11:48:03.143Z,15.93
2019-02-04T11:49:03.122Z,16.10
2019-02-04T11:50:03.113Z,16.21
2019-02-04T11:51:09.925Z,16.24
2019-02-04T11:52:04.107Z,16.73
2019-02-04T11:53:03.084Z,17.54
2019-02-04T11:54:03.079Z,18.42
2019-02-04T11:55:03.053Z,19.30
2019-02-04T11:56:03.047Z,20.23
2019-02-04T11:57:03.030Z,20.78
2019-02-04T11:58:03.022Z,21.26
2019-02-04T11:59:03.013Z,21.15
2019-02-04T12:00:02.998Z,19.26
2019-02-04T12:01:02.984Z,19.03
2019-02-04T12:02:02.975Z,19.16
2019-02-04T12:03:02.966Z,19.06
2019-02-04T12:04:02.958Z,18.79
2019-02-04T12:05:02.944Z,18.68
2019-02-04T12:06:02.940Z,18.63
2019-02-04T12:07:02.915Z,18.70
2019-02-04T12:08:02.905Z,18.04
2019-02-04T12:09:02.892Z,16.38
2019-02-04T12:10:02.891Z,16.63
2019-02-04T12:11:02.914Z,16.51
2019-02-04T12:12:02.862Z,16.90
2019-02-04T12:13:02.848Z,17.13
2019-02-04T12:14:02.839Z,17.92
2019-02-04T12:15:02.825Z,18.68
2019-02-04T12:16:02.816Z,19.33
2019-02-04T12:17:02.808Z,19.52
2019-02-04T12:18:02.793Z,18.39
2019-02-04T12:19:02.787Z,18.11
2019-02-04T12:20:02.772Z,18.12
2019-02-04T12:21:02.764Z,18.17
2019-02-04T12:22:02.907Z,17.46
2019-02-04T12:23:02.735Z,16.60
2019-02-04T12:24:02.726Z,16.48
2019-02-04T12:25:02.710Z,16.68
2019-02-04T12:26:02.700Z,15.91
2019-02-04T12:27:02.688Z,14.78
2019-02-04T12:28:02.681Z,14.61
2019-02-04T12:29:02.665Z,15.18
2019-02-04T12:30:02.653Z,14.92
2019-02-04T12:31:02.641Z,15.90
2019-02-04T12:32:02.631Z,16.79
2019-02-04T12:33:02.625Z,17.67
2019-02-04T12:34:02.608Z,17.39
2019-02-04T12:35:02.597Z,16.99
2019-02-04T12:36:02.586Z,16.97
2019-02-04T12:37:02.633Z,16.20
2019-02-04T12:38:02.563Z,15.87
2019-02-04T12:39:02.552Z,15.81
2019-02-04T12:40:02.543Z,14.22
2019-02-04T12:41:02.530Z,13.66
2019-02-04T12:42:02.521Z,13.90
2019-02-04T12:43:02.507Z,13.84
2019-02-04T12:44:02.497Z,13.93
2019-02-04T12:45:02.489Z,14.59
2019-02-04T12:46:02.474Z,15.04
2019-02-04T12:47:02.465Z,15.48
2019-02-04T12:48:02.452Z,15.95
2019-02-04T12:49:02.440Z,15.63
2019-02-04T12:50:02.433Z,15.42
2019-02-04T12:51:02.417Z,15.07
2019-02-04T12:52:02.409Z,14.94
2019-02-04T12:53:02.398Z,15.14
2019-02-04T12:54:02.391Z,15.42
2019-02-04T12:55:02.380Z,15.99
2019-02-04T12:56:02.365Z,15.80
2019-02-04T12:57:02.352Z,15.58
2019-02-04T12:58:02.343Z,14.88
2019-02-04T12:59:02.333Z,14.74
2019-02-04T13:00:02.317Z,13.72
2019-02-04T13:01:02.307Z,13.05
2019-02-04T13:02:02.295Z,12.60
2019-02-04T13:03:02.287Z,12.31
2019-02-04T13:04:02.334Z,12.43
2019-02-04T13:05:02.272Z,12.77
2019-02-04T13:06:02.251Z,13.46
2019-02-04T13:07:02.246Z,13.60
2019-02-04T13:08:02.235Z,13.30
2019-02-04T13:09:02.217Z,13.48
2019-02-04T13:10:02.219Z,13.66
2019-02-04T13:11:02.197Z,13.97
2019-02-04T13:12:02.200Z,13.85
2019-02-04T13:13:02.171Z,13.77
2019-02-04T13:14:02.159Z,13.89
2019-02-04T13:15:02.148Z,14.28
2019-02-04T13:16:02.142Z,14.91
2019-02-04T13:17:02.214Z,15.22
2019-02-04T13:18:02.246Z,15.58
2019-02-04T13:19:02.102Z,15.18
2019-02-04T13:20:02.092Z,15.34
2019-02-04T13:21:02.080Z,15.31
2019-02-04T13:22:02.068Z,14.95
2019-02-04T13:23:02.064Z,13.87
2019-02-04T13:24:02.044Z,13.96
2019-02-04T13:25:02.033Z,14.31
2019-02-04T13:26:02.028Z,14.64
2019-02-04T13:27:02.011Z,14.23
2019-02-04T13:28:02.005Z,14.38
2019-02-04T13:29:01.989Z,14.08
2019-02-04T13:30:01.977Z,13.99
2019-02-04T13:31:01.962Z,14.09
2019-02-04T13:32:01.957Z,13.41
2019-02-04T13:33:01.939Z,13.26
2019-02-04T13:34:01.927Z,13.59
2019-02-04T13:35:01.916Z,13.71
2019-02-04T13:36:01.905Z,13.59
2019-02-04T13:37:01.894Z,13.53
2019-02-04T13:38:01.882Z,13.71
2019-02-04T13:39:01.870Z,13.50
2019-02-04T13:40:01.912Z,12.81
2019-02-04T13:41:08.094Z,12.14
2019-02-04T13:42:26.322Z,11.66
2019-02-04T13:43:26.302Z,12.06
2019-02-04T13:44:26.290Z,11.85
2019-02-04T13:45:26.279Z,12.16
2019-02-04T13:46:26.268Z,12.32
2019-02-04T13:47:26.256Z,12.17
2019-02-04T13:48:26.245Z,11.88
2019-02-04T13:49:26.240Z,11.62
2019-02-04T13:50:26.221Z,11.49
2019-02-04T13:51:26.218Z,11.71
2019-02-04T13:52:26.203Z,11.88
2019-02-04T13:53:27.075Z,12.04
2019-02-04T13:54:26.178Z,11.61
2019-02-04T13:55:26.166Z,11.51
2019-02-04T13:56:26.155Z,11.71
2019-02-04T13:57:26.145Z,11.89
2019-02-04T13:58:26.141Z,11.62
2019-02-04T13:59:26.129Z,11.48
2019-02-04T14:00:27.217Z,11.58
2019-02-04T14:01:26.107Z,11.82
2019-02-04T14:02:26.092Z,11.92
2019-02-04T14:03:26.081Z,11.88
2019-02-04T14:04:26.075Z,11.73
2019-02-04T14:05:26.060Z,11.31
2019-02-04T14:06:26.052Z,11.19
2019-02-04T14:07:26.034Z,11.17
2019-02-04T14:08:26.024Z,11.02
2019-02-04T14:09:26.029Z,11.00
2019-02-04T14:10:26.021Z,10.75
2019-02-04T14:11:25.998Z,10.82
2019-02-04T14:12:25.979Z,10.61
2019-02-04T14:13:25.967Z,10.26
2019-02-04T14:14:25.954Z,10.08
2019-02-04T14:15:26.074Z,10.06
2019-02-04T14:16:25.936Z,10.01
2019-02-04T14:17:25.926Z,9.96
2019-02-04T14:18:26.649Z,9.87
2019-02-04T14:19:25.908Z,9.65
2019-02-04T14:20:25.889Z,9.40
2019-02-04T14:21:25.877Z,9.35
2019-02-04T14:22:25.867Z,9.47
2019-02-04T14:23:27.528Z,9.40
2019-02-04T14:24:25.845Z,9.36
2019-02-04T14:25:25.833Z,9.21
2019-02-04T14:26:28.642Z,9.08
2019-02-04T14:27:25.812Z,9.21
2019-02-04T14:28:25.797Z,9.22
2019-02-04T14:29:26.001Z,9.21
2019-02-04T14:30:25.778Z,9.13
2019-02-04T14:31:25.773Z,8.99
2019-02-04T14:32:25.754Z,8.95
2019-02-04T14:33:25.743Z,8.89
2019-02-04T14:34:25.730Z,8.90
2019-02-04T14:35:25.724Z,9.04
2019-02-04T14:36:25.710Z,9.14
2019-02-04T14:37:25.696Z,9.21
2019-02-04T14:38:25.687Z,9.17
2019-02-04T14:39:25.680Z,8.99
2019-02-04T14:40:25.666Z,9.03
2019-02-04T14:41:25.651Z,8.86
2019-02-04T14:42:25.640Z,8.86
2019-02-04T14:43:25.633Z,8.80
2019-02-04T14:44:25.616Z,8.83
2019-02-04T14:45:25.602Z,8.86
2019-02-04T14:46:25.599Z,9.13
2019-02-04T14:47:25.580Z,9.17
2019-02-04T14:48:25.569Z,9.15
2019-02-04T14:49:25.558Z,8.99
2019-02-04T14:50:25.545Z,8.78
2019-02-04T14:51:25.540Z,8.67
2019-02-04T14:52:25.528Z,8.80
2019-02-04T14:53:25.511Z,8.85
2019-02-04T14:54:37.370Z,9.11
2019-02-04T14:55:49.980Z,9.10
2019-02-04T14:56:49.962Z,8.90
2019-02-04T14:57:49.952Z,8.86
2019-02-04T14:58:49.938Z,8.62
2019-02-04T14:59:49.933Z,8.63
2019-02-04T15:00:49.921Z,8.55
2019-02-04T15:01:49.911Z,8.55
2019-02-04T15:02:49.893Z,8.53
2019-02-04T15:03:49.883Z,8.31
2019-02-04T15:04:49.877Z,8.20
2019-02-04T15:05:49.865Z,8.13
2019-02-04T15:06:49.850Z,7.94
2019-02-04T15:07:49.840Z,7.75
2019-02-04T15:08:49.828Z,7.61
2019-02-04T15:09:49.818Z,7.68
2019-02-04T15:10:49.811Z,7.55
2019-02-04T15:11:49.799Z,7.58
2019-02-04T15:12:49.790Z,7.65
2019-02-04T15:13:49.773Z,7.75
2019-02-04T15:14:49.760Z,7.67
2019-02-04T15:15:49.751Z,7.67
2019-02-04T15:16:49.743Z,7.49
2019-02-04T15:17:49.732Z,7.54
2019-02-04T15:18:49.720Z,7.57
2019-02-04T15:19:49.705Z,7.58
2019-02-04T15:20:49.694Z,7.61
2019-02-04T15:21:49.684Z,7.43
2019-02-04T15:22:49.672Z,7.46
2019-02-04T15:23:49.665Z,7.49
2019-02-04T15:24:49.652Z,7.43
2019-02-04T15:25:49.640Z,7.40
2019-02-04T15:26:49.628Z,7.42
2019-02-04T15:27:49.617Z,7.43
2019-02-04T15:28:49.605Z,7.40
2019-02-04T15:29:49.595Z,7.43
2019-02-04T15:30:49.588Z,7.44
2019-02-04T15:31:49.572Z,7.52
2019-02-04T15:32:49.562Z,7.49
2019-02-04T15:33:49.679Z,7.42
2019-02-04T15:34:49.539Z,7.52
2019-02-04T15:35:49.536Z,7.43
2019-02-04T15:36:49.518Z,7.46
2019-02-04T15:37:49.510Z,7.44
2019-02-04T15:38:49.494Z,7.46
2019-02-04T15:39:49.484Z,7.46
2019-02-04T15:40:49.471Z,7.47
2019-02-04T15:41:49.465Z,7.46
2019-02-04T15:42:49.450Z,7.43
2019-02-04T15:43:49.440Z,7.47
2019-02-04T15:44:49.426Z,7.46
2019-02-04T15:45:49.416Z,7.36
2019-02-04T15:46:49.410Z,7.39
2019-02-04T15:47:49.392Z,7.29
2019-02-04T15:48:49.381Z,7.25
2019-02-04T15:49:51.001Z,7.19
2019-02-04T15:50:49.358Z,7.21
2019-02-04T15:51:49.348Z,7.10
2019-02-04T15:52:49.337Z,7.00
2019-02-04T15:53:49.322Z,6.88
2019-02-04T15:54:49.313Z,6.73
2019-02-04T15:55:49.301Z,6.69
2019-02-04T15:56:49.291Z,6.48
2019-02-04T15:57:49.280Z,6.62
2019-02-04T15:58:49.266Z,6.48
2019-02-04T15:59:49.253Z,6.51
2019-02-04T16:00:49.243Z,6.55
2019-02-04T16:01:49.233Z,6.54
2019-02-04T16:02:49.219Z,6.48
2019-02-04T16:03:49.208Z,6.30
2019-02-04T16:04:49.199Z,6.15
2019-02-04T16:05:49.184Z,6.08
2019-02-04T16:06:49.189Z,6.02
2019-02-04T16:07:49.161Z,5.95
2019-02-04T16:08:49.151Z,6.02
2019-02-04T16:09:49.143Z,6.02
2019-02-04T16:10:49.130Z,6.02
2019-02-04T16:11:49.121Z,6.13
2019-02-04T16:12:49.111Z,6.06
2019-02-04T16:13:49.096Z,6.11
2019-02-04T16:14:49.087Z,6.08
2019-02-04T16:15:49.091Z,5.90
2019-02-04T16:16:49.065Z,5.79
2019-02-04T16:17:49.048Z,5.73
2019-02-04T16:18:49.043Z,5.57
2019-02-04T16:19:49.025Z,5.65
2019-02-04T16:20:49.017Z,5.58
2019-02-04T16:21:49.007Z,5.66
2019-02-04T16:22:57.893Z,5.62
2019-02-04T16:24:13.467Z,5.55
2019-02-04T16:25:13.450Z,5.43
2019-02-04T16:26:15.277Z,5.47
2019-02-04T16:27:13.436Z,5.42
2019-02-04T16:28:13.428Z,5.46
2019-02-04T16:29:13.405Z,5.39
2019-02-04T16:30:13.395Z,5.43
2019-02-04T16:31:13.386Z,5.39
2019-02-04T16:32:13.376Z,5.26
2019-02-04T16:33:13.369Z,5.35
2019-02-04T16:34:13.357Z,5.32
2019-02-04T16:35:13.343Z,5.31
2019-02-04T16:36:13.334Z,5.29
2019-02-04T16:37:13.325Z,5.17
2019-02-04T16:38:13.306Z,5.14
2019-02-04T16:39:13.296Z,5.02
2019-02-04T16:40:13.284Z,5.02
2019-02-04T16:41:13.275Z,5.06
2019-02-04T16:42:13.266Z,5.02
2019-02-04T16:43:13.253Z,4.96
2019-02-04T16:44:13.246Z,5.03
2019-02-04T16:45:13.236Z,4.93
2019-02-04T16:46:13.223Z,4.95
2019-02-04T16:47:13.210Z,4.87
2019-02-04T16:48:13.198Z,4.95
2019-02-04T16:49:13.184Z,4.93
2019-02-04T16:53:13.139Z,4.82
2019-02-04T16:54:13.126Z,4.72
2019-02-04T16:55:13.117Z,4.74
2019-02-04T16:56:13.108Z,4.72
2019-02-04T16:57:13.099Z,4.77
2019-02-04T16:58:13.088Z,4.71
2019-02-04T16:59:13.075Z,4.74
2019-02-04T17:03:13.026Z,4.74
2019-02-04T17:04:13.017Z,4.71
2019-02-04T17:05:13.006Z,4.72
2019-02-04T17:06:13.000Z,4.67
2019-02-04T17:07:12.981Z,4.63
2019-02-04T17:08:12.977Z,4.49
2019-02-04T17:09:12.957Z,4.49
2019-02-04T17:10:12.947Z,4.36
2019-02-04T17:11:12.943Z,4.38
2019-02-04T17:12:12.925Z,4.39
2019-02-04T17:13:12.916Z,4.23
2019-02-04T17:14:12.903Z,4.12
2019-02-04T17:15:12.889Z,4.12
2019-02-04T17:16:12.885Z,4.16
2019-02-04T17:17:12.870Z,4.24
2019-02-04T17:18:12.858Z,4.23
2019-02-04T17:19:12.849Z,4.31
2019-02-04T17:20:12.840Z,4.34
2019-02-04T17:21:12.835Z,4.17
2019-02-04T17:22:12.816Z,4.28
2019-02-04T17:23:22.029Z,4.26
2019-02-04T17:24:37.271Z,4.21
2019-02-04T17:25:37.262Z,4.24
2019-02-04T17:26:37.249Z,4.12
2019-02-04T17:27:37.241Z,4.20
2019-02-04T17:28:37.233Z,4.23
2019-02-04T17:29:37.220Z,4.30
2019-02-04T17:30:37.211Z,4.27
2019-02-04T17:31:37.200Z,4.20
2019-02-04T17:32:37.181Z,4.20
2019-02-04T17:33:37.171Z,4.02
2019-02-04T17:34:37.166Z,4.05
2019-02-04T17:35:37.150Z,3.89
2019-02-04T17:36:37.144Z,3.86
2019-02-04T17:37:37.131Z,3.90
2019-02-04T17:38:37.129Z,3.90
2019-02-04T17:39:37.110Z,3.84
2019-02-04T17:40:37.093Z,3.89
2019-02-04T17:41:37.081Z,3.81
2019-02-04T17:42:37.069Z,3.77
2019-02-04T17:43:37.059Z,3.73
2019-02-04T17:44:37.048Z,3.77
2019-02-04T17:45:37.035Z,3.80
2019-02-04T17:46:37.026Z,3.72
2019-02-04T17:47:37.013Z,3.63
2019-02-04T17:48:37.002Z,3.72
2019-02-04T17:49:36.997Z,3.55
2019-02-04T17:50:36.979Z,3.62
2019-02-04T17:51:37.015Z,3.71
2019-02-04T17:52:36.967Z,3.72
2019-02-04T17:53:36.950Z,3.77
2019-02-04T17:54:36.934Z,3.69
2019-02-04T17:55:36.930Z,3.62
2019-02-04T17:56:36.917Z,3.53
2019-02-04T17:57:36.944Z,3.54
2019-02-04T17:58:36.893Z,3.58
2019-02-04T17:59:36.882Z,3.55
2019-02-04T18:00:36.875Z,3.55
2019-02-04T18:01:36.858Z,3.69
2019-02-04T18:02:36.849Z,3.71
2019-02-04T18:03:36.845Z,3.73
2019-02-04T18:04:36.827Z,3.55
2019-02-04T18:05:36.816Z,3.47
2019-02-04T18:06:36.892Z,3.43
2019-02-04T18:07:36.800Z,3.33
2019-02-04T18:08:36.782Z,3.36
2019-02-04T18:09:36.768Z,3.43
2019-02-04T18:10:36.758Z,3.33
2019-02-04T18:11:36.756Z,3.37
2019-02-04T18:12:36.737Z,3.40
2019-02-04T18:13:36.731Z,3.43
2019-02-04T18:14:36.721Z,3.33
2019-02-04T18:15:36.709Z,3.36
2019-02-04T18:16:36.692Z,3.33
2019-02-04T18:17:36.685Z,3.30
2019-02-04T18:18:36.677Z,3.26
2019-02-04T18:19:36.661Z,3.17
2019-02-04T18:20:36.647Z,3.20
2019-02-04T18:21:36.640Z,3.29
2019-02-04T18:22:36.666Z,3.43
2019-02-04T18:23:45.609Z,3.48
2019-02-04T18:25:01.093Z,3.45
2019-02-04T18:26:01.071Z,3.45
2019-02-04T18:27:01.061Z,3.45